createdAt,value
2019-02-14T00:00:38.921Z,34.53
2019-02-14T00:03:08.507Z,30.47
2019-02-14T00:05:38.028Z,26.57
2019-02-14T00:08:07.556Z,30.30
2019-02-14T00:10:37.619Z,30.87
2019-02-14T00:13:07.150Z,37.03
2019-02-14T00:15:36.841Z,35.03
2019-02-14T00:18:06.407Z,35.27
2019-02-14T00:20:35.922Z,34.87
2019-02-14T00:23:06.159Z,29.40
2019-02-14T00:25:35.850Z,34.27
2019-02-14T00:28:05.398Z,32.37
2019-02-14T00:30:34.945Z,31.60
2019-02-14T00:33:04.476Z,40.63
2019-02-14T00:35:34.465Z,35.43
2019-02-14T00:38:04.550Z,33.47
2019-02-14T00:40:34.143Z,33.07
2019-02-14T00:43:03.662Z,38.40
2019-02-14T00:45:34.685Z,44.37
2019-02-14T00:48:04.718Z,41.70
2019-02-14T00:50:34.240Z,37.20
2019-02-14T00:53:03.848Z,34.20
2019-02-14T00:55:33.365Z,41.80
2019-02-14T00:58:02.871Z,42.13
2019-02-14T01:00:32.920Z,48.80
2019-02-14T01:03:02.454Z,40.07
2019-02-14T01:05:33.857Z,44.93
2019-02-14T01:08:03.366Z,43.67
2019-02-14T01:10:32.954Z,48.00
2019-02-14T01:13:02.801Z,39.20
2019-02-14T01:15:32.630Z,49.90
2019-02-14T01:18:02.156Z,40.83
2019-02-14T01:20:31.668Z,48.60
2019-02-14T01:23:01.213Z,56.40
2019-02-14T01:25:30.739Z,42.97
2019-02-14T01:28:00.235Z,39.03
2019-02-14T01:30:30.150Z,46.70
2019-02-14T01:32:59.659Z,48.87
2019-02-14T01:35:29.178Z,49.77
2019-02-14T01:37:58.745Z,44.73
2019-02-14T01:40:28.250Z,52.63
2019-02-14T01:42:57.745Z,49.30
2019-02-14T01:45:27.453Z,52.47
2019-02-14T01:47:56.958Z,47.47
2019-02-14T01:50:26.466Z,46.40
2019-02-14T01:52:59.095Z,51.60
2019-02-14T01:55:28.601Z,47.87
2019-02-14T01:57:58.110Z,41.97
2019-02-14T02:00:27.820Z,52.37
2019-02-14T02:02:57.670Z,50.47
2019-02-14T02:05:27.331Z,42.87
2019-02-14T02:07:56.853Z,47.80
2019-02-14T02:10:26.513Z,55.43
2019-02-14T02:12:56.171Z,50.30
2019-02-14T02:15:26.843Z,56.30
2019-02-14T02:17:56.781Z,55.40
2019-02-14T02:20:33.241Z,52.40
2019-02-14T02:22:57.677Z,52.40
2019-02-14T02:25:27.187Z,47.87
2019-02-14T02:27:56.750Z,55.50
2019-02-14T02:30:26.294Z,45.33
2019-02-14T02:32:55.792Z,60.60
2019-02-14T02:35:25.328Z,57.37
2019-02-14T02:37:54.925Z,52.13
2019-02-14T02:40:24.427Z,58.53
2019-02-14T02:42:54.014Z,59.80
2019-02-14T02:45:23.547Z,56.97
2019-02-14T02:47:53.060Z,56.07
2019-02-14T02:50:22.579Z,58.10
2019-02-14T02:52:52.120Z,56.83
2019-02-14T02:55:21.627Z,51.83
2019-02-14T02:57:51.141Z,51.03
2019-02-14T03:00:20.782Z,55.03
2019-02-14T03:02:50.317Z,61.53
2019-02-14T03:05:19.838Z,51.80
2019-02-14T03:07:49.380Z,54.67
2019-02-14T03:10:19.478Z,72.93
2019-02-14T03:12:49.393Z,62.03
2019-02-14T03:15:18.938Z,58.70
2019-02-14T03:17:48.442Z,64.27
2019-02-14T03:20:18.055Z,59.20
2019-02-14T03:22:49.889Z,62.50
2019-02-14T03:25:20.624Z,59.80
2019-02-14T03:27:50.145Z,56.80
2019-02-14T03:30:19.680Z,67.97
2019-02-14T03:32:49.200Z,62.17
2019-02-14T03:35:18.767Z,69.63
2019-02-14T03:37:48.340Z,59.00
2019-02-14T03:40:17.856Z,68.07
2019-02-14T03:42:47.433Z,57.57
2019-02-14T03:45:20.337Z,57.77
2019-02-14T03:47:49.845Z,61.33
2019-02-14T03:50:19.373Z,72.03
2019-02-14T03:52:48.925Z,67.63
2019-02-14T03:55:18.499Z,63.80
2019-02-14T03:57:48.133Z,64.40
2019-02-14T04:00:18.924Z,66.00
2019-02-14T04:02:48.418Z,66.90
2019-02-14T04:05:17.945Z,72.53
2019-02-14T04:07:47.700Z,71.27
2019-02-14T04:10:17.331Z,81.77
2019-02-14T04:12:46.919Z,62.13
2019-02-14T04:15:18.562Z,67.70
2019-02-14T04:17:48.150Z,82.70
2019-02-14T04:20:18.154Z,70.10
2019-02-14T04:22:47.801Z,69.33
2019-02-14T04:25:17.379Z,72.73
2019-02-14T04:27:46.966Z,80.93
2019-02-14T04:30:17.087Z,72.57
2019-02-14T04:32:46.595Z,81.17
2019-02-14T04:35:16.097Z,78.27
2019-02-14T04:37:45.737Z,75.40
2019-02-14T04:40:15.308Z,80.20
2019-02-14T04:42:44.826Z,73.50
2019-02-14T04:45:15.105Z,83.27
2019-02-14T04:47:44.680Z,71.73
2019-02-14T04:50:14.335Z,84.20
2019-02-14T04:52:44.552Z,71.80
2019-02-14T04:55:14.125Z,75.57
2019-02-14T04:57:43.785Z,69.37
2019-02-14T05:00:15.836Z,79.27
2019-02-14T05:02:45.337Z,71.87
2019-02-14T05:05:14.928Z,79.50
2019-02-14T05:07:44.619Z,73.93
2019-02-14T05:10:14.311Z,75.67
2019-02-14T05:12:43.830Z,70.93
2019-02-14T05:15:13.984Z,74.23
2019-02-14T05:17:43.489Z,76.53
2019-02-14T05:20:13.787Z,70.30
2019-02-14T05:22:43.348Z,72.40
2019-02-14T05:25:12.937Z,90.80
2019-02-14T05:27:42.440Z,76.93
2019-02-14T05:30:21.254Z,72.83
2019-02-14T05:32:50.768Z,68.97
2019-02-14T05:35:20.280Z,72.03
2019-02-14T05:37:49.804Z,71.53
2019-02-14T05:40:19.370Z,74.93
2019-02-14T05:42:48.898Z,76.00
2019-02-14T05:45:18.434Z,73.97
2019-02-14T05:47:48.186Z,74.80
2019-02-14T05:50:17.754Z,82.17
2019-02-14T05:52:47.618Z,75.23
2019-02-14T05:55:17.125Z,78.23
2019-02-14T05:57:46.707Z,74.33
2019-02-14T06:00:18.831Z,84.97
2019-02-14T06:02:48.345Z,81.70
2019-02-14T06:05:17.864Z,78.63
2019-02-14T06:07:47.460Z,74.93
2019-02-14T06:10:16.960Z,74.10
2019-02-14T06:12:46.480Z,74.20
2019-02-14T06:15:16.491Z,80.13
2019-02-14T06:17:46.000Z,89.17
2019-02-14T06:20:15.647Z,74.20
2019-02-14T06:22:45.180Z,83.57
2019-02-14T06:25:15.441Z,80.73
2019-02-14T06:27:44.942Z,81.93
2019-02-14T06:30:16.396Z,78.20
2019-02-14T06:32:46.051Z,77.77
2019-02-14T06:35:15.649Z,89.47
2019-02-14T06:37:45.484Z,86.97
2019-02-14T06:40:15.498Z,79.10
2019-02-14T06:42:45.081Z,85.40
2019-02-14T06:45:19.293Z,77.70
2019-02-14T06:47:48.796Z,91.35
2019-02-14T06:50:18.382Z,86.33
2019-02-14T06:52:49.937Z,73.57
2019-02-14T06:55:19.880Z,81.20
2019-02-14T06:57:49.474Z,87.00
2019-02-14T07:00:19.492Z,94.37
2019-02-14T07:02:48.995Z,77.32
2019-02-14T07:05:18.504Z,87.77
2019-02-14T07:07:48.045Z,78.02
2019-02-14T07:10:17.631Z,88.78
2019-02-14T07:12:47.125Z,79.37
2019-02-14T07:15:18.345Z,81.90
2019-02-14T07:17:47.858Z,76.50
2019-02-14T07:20:18.303Z,86.97
2019-02-14T07:22:47.850Z,84.03
2019-02-14T07:25:17.339Z,75.83
2019-02-14T07:27:46.872Z,76.10
2019-02-14T07:30:23.145Z,83.73
2019-02-14T07:32:52.660Z,74.70
2019-02-14T07:35:22.319Z,77.90
2019-02-14T07:37:51.861Z,66.70
2019-02-14T07:40:21.363Z,73.27
2019-02-14T07:42:50.884Z,66.90
2019-02-14T07:45:20.482Z,72.13
2019-02-14T07:47:50.065Z,68.73
2019-02-14T07:50:19.733Z,69.33
2019-02-14T07:52:49.720Z,70.67
2019-02-14T07:55:19.351Z,60.60
2019-02-14T07:57:49.538Z,62.70
2019-02-14T08:00:20.616Z,72.70
2019-02-14T08:02:50.217Z,62.40
2019-02-14T08:05:19.798Z,66.57
2019-02-14T08:07:49.427Z,64.90
2019-02-14T08:10:20.430Z,74.90
2019-02-14T08:12:50.020Z,73.77
2019-02-14T08:15:19.995Z,65.97
2019-02-14T08:17:49.631Z,68.37
2019-02-14T08:20:22.937Z,62.57
2019-02-14T08:22:52.473Z,70.93
2019-02-14T08:25:22.073Z,63.93
2019-02-14T08:27:51.599Z,64.43
2019-02-14T08:30:24.832Z,63.70
2019-02-14T08:32:54.353Z,60.77
2019-02-14T08:35:23.954Z,67.10
2019-02-14T08:37:54.040Z,65.57
2019-02-14T08:40:28.423Z,64.40
2019-02-14T08:42:58.709Z,65.87
2019-02-14T08:45:28.594Z,62.57
2019-02-14T08:47:58.250Z,60.77
2019-02-14T08:50:28.217Z,60.00
2019-02-14T08:52:58.057Z,61.00
2019-02-14T08:55:27.657Z,62.00
2019-02-14T08:57:57.197Z,64.17
2019-02-14T09:00:26.982Z,62.40
2019-02-14T09:02:56.541Z,63.13
2019-02-14T09:05:26.184Z,66.67
2019-02-14T09:07:55.705Z,55.50
2019-02-14T09:10:25.285Z,61.50
2019-02-14T09:12:55.107Z,59.97
2019-02-14T09:15:25.101Z,55.90
2019-02-14T09:17:54.678Z,58.87
2019-02-14T09:20:24.747Z,62.80
2019-02-14T09:22:54.357Z,58.40
2019-02-14T09:25:23.966Z,58.40
2019-02-14T09:27:53.593Z,53.20
2019-02-14T09:30:23.229Z,54.93
2019-02-14T09:32:52.987Z,62.80
2019-02-14T09:35:22.576Z,58.27
2019-02-14T09:37:52.692Z,53.93
2019-02-14T09:40:22.203Z,56.03
2019-02-14T09:42:51.762Z,57.43
2019-02-14T09:45:21.266Z,55.27
2019-02-14T09:47:50.901Z,66.73
2019-02-14T09:50:20.444Z,56.80
2019-02-14T09:52:50.041Z,52.67
2019-02-14T09:55:19.676Z,62.00
2019-02-14T09:57:49.395Z,52.73
2019-02-14T10:00:20.119Z,62.57
2019-02-14T10:02:49.678Z,53.50
2019-02-14T10:05:19.413Z,57.37
2019-02-14T10:07:48.920Z,49.83
2019-02-14T10:10:24.378Z,54.03
2019-02-14T10:12:54.129Z,51.83
2019-02-14T10:15:23.783Z,57.60
2019-02-14T10:17:53.648Z,47.53
2019-02-14T10:20:23.147Z,53.53
2019-02-14T10:22:52.727Z,50.93
2019-02-14T10:25:22.398Z,49.57
2019-02-14T10:27:52.004Z,48.13
2019-02-14T10:30:25.246Z,45.33
2019-02-14T10:32:55.059Z,47.03
2019-02-14T10:35:24.712Z,47.40
2019-02-14T10:37:54.232Z,48.60
2019-02-14T10:40:23.759Z,44.87
2019-02-14T10:42:53.292Z,52.60
2019-02-14T10:45:24.717Z,48.23
2019-02-14T10:47:54.260Z,41.93
2019-02-14T10:50:23.783Z,44.33
2019-02-14T10:52:53.341Z,42.70
2019-02-14T10:55:23.032Z,46.80
2019-02-14T10:57:52.567Z,42.67
2019-02-14T11:00:28.408Z,44.10
2019-02-14T11:02:57.966Z,44.33
2019-02-14T11:05:27.756Z,44.93
2019-02-14T11:07:57.392Z,41.10
2019-02-14T11:10:27.054Z,43.40
2019-02-14T11:12:58.116Z,45.53
2019-02-14T11:15:28.143Z,44.70
2019-02-14T11:17:57.709Z,37.30
2019-02-14T11:20:27.311Z,36.80
2019-02-14T11:22:56.856Z,41.27
2019-02-14T11:25:33.975Z,46.00
2019-02-14T11:28:03.525Z,40.73
2019-02-14T11:30:33.212Z,38.50
2019-02-14T11:33:02.896Z,40.07
2019-02-14T11:35:32.639Z,43.40
2019-02-14T11:38:02.216Z,37.40
2019-02-14T11:40:31.856Z,32.57
2019-02-14T11:43:01.610Z,31.40
2019-02-14T11:45:31.246Z,34.37
2019-02-14T11:48:00.836Z,30.90
2019-02-14T11:50:30.381Z,36.03
2019-02-14T11:52:59.904Z,26.00
2019-02-14T11:55:29.405Z,30.30
2019-02-14T11:57:59.030Z,27.27
2019-02-14T12:00:28.690Z,32.73
2019-02-14T12:02:58.227Z,28.53
2019-02-14T12:05:27.791Z,20.53
2019-02-14T12:07:57.629Z,17.47
2019-02-14T12:10:27.163Z,28.37
2019-02-14T12:12:56.716Z,26.93
2019-02-14T12:15:26.773Z,20.37
2019-02-14T12:17:56.394Z,17.77
2019-02-14T12:20:26.466Z,21.53
2019-02-14T12:22:55.976Z,17.23
2019-02-14T12:25:29.276Z,15.43
2019-02-14T12:27:58.877Z,14.70
2019-02-14T12:30:28.525Z,12.97
2019-02-14T12:32:58.033Z,13.37
2019-02-14T12:35:29.672Z,14.27
2019-02-14T12:37:59.195Z,14.30
2019-02-14T12:40:28.753Z,12.53
2019-02-14T12:42:58.361Z,25.00
2019-02-14T12:45:28.213Z,12.30
2019-02-14T12:47:57.814Z,12.93
2019-02-14T12:50:27.439Z,16.90
2019-02-14T12:52:57.024Z,15.70
2019-02-14T12:55:26.693Z,14.47
2019-02-14T12:57:56.388Z,12.77
2019-02-14T13:00:26.205Z,12.60
2019-02-14T13:02:55.727Z,12.87
2019-02-14T13:05:25.442Z,11.60
2019-02-14T13:07:55.035Z,24.50
2019-02-14T13:10:24.744Z,10.60
2019-02-14T13:12:54.352Z,11.07
2019-02-14T13:15:27.406Z,18.23
2019-02-14T13:17:56.934Z,10.43
2019-02-14T13:20:26.930Z,10.70
2019-02-14T13:22:56.524Z,11.43
2019-02-14T13:25:26.044Z,11.20
2019-02-14T13:27:55.655Z,10.73
2019-02-14T13:30:27.428Z,9.13
2019-02-14T13:32:57.030Z,13.07
2019-02-14T13:35:26.596Z,10.40
2019-02-14T13:37:56.115Z,10.17
2019-02-14T13:40:25.660Z,9.60
2019-02-14T13:42:55.741Z,10.93
2019-02-14T13:45:25.930Z,9.50
2019-02-14T13:47:55.429Z,11.37
2019-02-14T13:50:25.051Z,9.03
2019-02-14T13:52:54.580Z,9.27
2019-02-14T13:55:24.078Z,8.70
2019-02-14T13:57:53.618Z,9.07
2019-02-14T14:00:30.572Z,9.37
2019-02-14T14:03:00.224Z,9.10
2019-02-14T14:05:29.719Z,9.00
2019-02-14T14:07:59.301Z,9.67
2019-02-14T14:10:28.933Z,9.60
2019-02-14T14:12:58.508Z,9.77
2019-02-14T14:15:28.083Z,12.67
2019-02-14T14:17:57.633Z,8.23
2019-02-14T14:20:27.147Z,11.13
2019-02-14T14:22:56.865Z,18.67
2019-02-14T14:25:26.627Z,11.03
2019-02-14T14:27:56.204Z,11.23
2019-02-14T14:30:25.789Z,9.60
2019-02-14T14:32:55.410Z,8.07
2019-02-14T14:35:24.939Z,8.93
2019-02-14T14:37:54.445Z,15.73
2019-02-14T14:40:23.978Z,9.27
2019-02-14T14:42:55.621Z,11.27
2019-02-14T14:45:37.229Z,11.30
2019-02-14T14:48:07.379Z,8.20
2019-02-14T14:50:36.868Z,10.70
2019-02-14T14:53:07.651Z,9.03
2019-02-14T14:55:37.409Z,8.23
2019-02-14T14:58:06.996Z,7.97
2019-02-14T15:00:36.545Z,7.40
2019-02-14T15:03:06.085Z,9.10
2019-02-14T15:05:35.578Z,8.83
2019-02-14T15:08:05.572Z,8.73
2019-02-14T15:10:35.074Z,8.43
2019-02-14T15:13:04.573Z,9.10
2019-02-14T15:15:34.126Z,9.93
2019-02-14T15:18:03.651Z,8.50
2019-02-14T15:20:33.167Z,9.57
2019-02-14T15:23:02.692Z,16.03
2019-02-14T15:25:32.223Z,12.53
2019-02-14T15:28:01.763Z,8.03
2019-02-14T15:30:33.026Z,8.20
2019-02-14T15:33:02.593Z,8.87
2019-02-14T15:35:32.122Z,8.57
2019-02-14T15:38:01.768Z,9.73
2019-02-14T15:40:31.275Z,9.23
2019-02-14T15:43:00.784Z,9.40
2019-02-14T15:45:30.387Z,13.00
2019-02-14T15:47:59.895Z,10.13
2019-02-14T15:50:32.063Z,11.03
2019-02-14T15:53:01.357Z,8.93
2019-02-14T15:55:30.866Z,8.83
2019-02-14T15:58:00.393Z,7.43
2019-02-14T16:00:30.756Z,10.03
2019-02-14T16:03:01.255Z,12.47
2019-02-14T16:05:30.791Z,8.87
2019-02-14T16:08:02.366Z,11.20
2019-02-14T16:10:31.752Z,10.90
2019-02-14T16:13:01.256Z,8.30
2019-02-14T16:15:33.597Z,8.23
2019-02-14T16:18:02.506Z,8.43
2019-02-14T16:20:32.094Z,8.80
2019-02-14T16:23:03.598Z,9.37
2019-02-14T16:25:32.955Z,10.60
2019-02-14T16:28:02.573Z,9.60
2019-02-14T16:30:33.383Z,11.10
2019-02-14T16:33:02.960Z,9.40
2019-02-14T16:35:32.642Z,9.53
2019-02-14T16:38:02.152Z,10.27
2019-02-14T16:40:38.304Z,8.43
2019-02-14T16:43:03.052Z,11.00
2019-02-14T16:45:33.056Z,8.57
2019-02-14T16:48:02.562Z,8.90
2019-02-14T16:50:32.117Z,20.83
2019-02-14T16:53:01.828Z,13.50
2019-02-14T16:55:31.404Z,12.30
2019-02-14T16:58:01.069Z,13.00
2019-02-14T17:00:30.686Z,11.13
2019-02-14T17:03:00.304Z,9.67
2019-02-14T17:05:29.939Z,14.40
2019-02-14T17:07:59.561Z,9.90
2019-02-14T17:10:36.670Z,12.40
2019-02-14T17:13:00.799Z,16.07
2019-02-14T17:15:30.853Z,10.60
2019-02-14T17:18:00.393Z,7.60
2019-02-14T17:20:29.907Z,9.47
2019-02-14T17:22:59.461Z,10.27
2019-02-14T17:25:29.051Z,12.30
2019-02-14T17:27:58.627Z,11.83
2019-02-14T17:30:28.202Z,10.90
2019-02-14T17:32:57.753Z,12.93
2019-02-14T17:35:27.277Z,11.43
2019-02-14T17:37:57.044Z,11.40
2019-02-14T17:40:26.565Z,8.10
2019-02-14T17:42:56.171Z,8.87
2019-02-14T17:45:25.785Z,8.37
2019-02-14T17:47:55.423Z,16.23
2019-02-14T17:50:25.058Z,11.57
2019-02-14T17:52:54.630Z,8.47
2019-02-14T17:55:24.295Z,12.03
2019-02-14T17:57:53.815Z,10.50
2019-02-14T18:00:24.154Z,11.90
2019-02-14T18:02:53.710Z,12.57
2019-02-14T18:05:27.016Z,17.03
2019-02-14T18:07:58.190Z,16.33
2019-02-14T18:10:27.806Z,16.73
2019-02-14T18:12:57.424Z,14.07
2019-02-14T18:15:27.186Z,23.97
2019-02-14T18:17:56.695Z,19.17
2019-02-14T18:20:26.213Z,22.33
2019-02-14T18:22:55.813Z,25.10
2019-02-14T18:25:25.380Z,36.13
2019-02-14T18:27:55.128Z,31.33
2019-02-14T18:30:24.688Z,18.90
2019-02-14T18:32:54.180Z,17.70
2019-02-14T18:35:23.674Z,25.53
2019-02-14T18:37:53.564Z,26.07
2019-02-14T18:40:23.103Z,23.53
2019-02-14T18:42:52.702Z,22.13
2019-02-14T18:45:22.309Z,21.10
2019-02-14T18:47:51.914Z,20.97
2019-02-14T18:50:24.149Z,24.93
2019-02-14T18:52:53.746Z,29.80
2019-02-14T18:55:23.256Z,26.70
2019-02-14T18:57:52.757Z,26.53
2019-02-14T19:00:22.492Z,35.13
2019-02-14T19:02:52.571Z,34.97
2019-02-14T19:05:22.461Z,25.03
2019-02-14T19:07:53.565Z,24.63
2019-02-14T19:10:23.457Z,16.20
2019-02-14T19:12:53.066Z,23.37
2019-02-14T19:15:22.687Z,21.10
2019-02-14T19:17:52.252Z,25.73
2019-02-14T19:20:21.857Z,19.73
2019-02-14T19:22:51.847Z,17.27
2019-02-14T19:25:23.005Z,13.80
2019-02-14T19:27:52.529Z,20.37
2019-02-14T19:30:22.598Z,25.73
2019-02-14T19:32:52.616Z,29.00
2019-02-14T19:35:23.320Z,26.83
2019-02-14T19:37:53.247Z,41.37
2019-02-14T19:40:22.774Z,32.50
2019-02-14T19:42:52.380Z,22.80
2019-02-14T19:45:21.928Z,25.87
2019-02-14T19:47:54.547Z,33.00
2019-02-14T19:50:24.092Z,26.60
2019-02-14T19:52:53.661Z,23.30
2019-02-14T19:55:23.179Z,19.70
2019-02-14T19:57:52.784Z,16.90
2019-02-14T20:00:23.686Z,18.73
2019-02-14T20:02:53.194Z,28.30
2019-02-14T20:05:22.710Z,15.60
2019-02-14T20:07:52.413Z,13.60
2019-02-14T20:10:22.035Z,14.03
2019-02-14T20:12:51.615Z,12.73
2019-02-14T20:15:21.913Z,18.03
2019-02-14T20:17:51.426Z,13.70
2019-02-14T20:20:21.021Z,11.00
2019-02-14T20:22:51.270Z,13.53
2019-02-14T20:25:29.473Z,18.93
2019-02-14T20:27:59.032Z,34.87
2019-02-14T20:30:30.349Z,13.50
2019-02-14T20:33:04.821Z,15.83
2019-02-14T20:35:31.238Z,14.10
2019-02-14T20:38:00.830Z,17.30
2019-02-14T20:40:32.030Z,11.67
2019-02-14T20:43:02.663Z,11.20
2019-02-14T20:45:32.235Z,18.93
2019-02-14T20:48:01.827Z,10.77
2019-02-14T20:50:31.446Z,10.00
2019-02-14T20:53:01.038Z,11.83
2019-02-14T20:55:30.623Z,12.17
2019-02-14T20:58:00.153Z,9.97
2019-02-14T21:00:38.842Z,11.57
2019-02-14T21:03:08.892Z,11.10
2019-02-14T21:05:38.500Z,13.83
2019-02-14T21:08:08.068Z,13.00
2019-02-14T21:10:37.679Z,18.93
2019-02-14T21:13:08.034Z,16.73
2019-02-14T21:15:37.653Z,14.87
2019-02-14T21:18:07.336Z,11.73
2019-02-14T21:20:36.998Z,12.80
2019-02-14T21:23:06.804Z,9.63
2019-02-14T21:25:38.502Z,11.83
2019-02-14T21:28:08.259Z,10.00
2019-02-14T21:30:37.873Z,22.48
2019-02-14T21:33:07.568Z,11.48
2019-02-14T21:35:37.232Z,11.78
2019-02-14T21:38:06.837Z,10.88
2019-02-14T21:40:36.481Z,14.70
2019-02-14T21:43:06.238Z,9.70
2019-02-14T21:45:35.949Z,13.05
2019-02-14T21:48:05.633Z,17.07
2019-02-14T21:50:35.232Z,14.50
2019-02-14T21:53:04.804Z,13.80
2019-02-14T21:55:34.369Z,13.88
2019-02-14T21:58:05.024Z,15.30
2019-02-14T22:00:35.188Z,14.68
2019-02-14T22:03:05.144Z,15.25
2019-02-14T22:05:34.766Z,18.40
2019-02-14T22:08:24.863Z,14.70
2019-02-14T22:10:54.454Z,12.05
2019-02-14T22:13:24.821Z,16.45
2019-02-14T22:15:54.811Z,17.98
2019-02-14T22:18:24.422Z,11.95
2019-02-14T22:20:53.942Z,12.03
2019-02-14T22:23:23.492Z,19.42
2019-02-14T22:25:53.453Z,12.73
2019-02-14T22:28:24.309Z,15.63
2019-02-14T22:30:54.018Z,12.75
2019-02-14T22:33:23.605Z,13.30
2019-02-14T22:35:53.269Z,13.20
2019-02-14T22:38:22.821Z,21.30
2019-02-14T22:40:52.413Z,17.65
2019-02-14T22:43:22.468Z,14.55
2019-02-14T22:45:52.340Z,13.75
2019-02-14T22:48:21.918Z,17.15
2019-02-14T22:50:52.503Z,20.95
2019-02-14T22:53:23.992Z,16.85
2019-02-14T22:55:54.842Z,12.75
2019-02-14T22:58:24.427Z,12.85
2019-02-14T23:00:59.259Z,11.48
2019-02-14T23:03:28.826Z,15.20
2019-02-14T23:05:58.644Z,12.25
2019-02-14T23:08:28.878Z,15.88
2019-02-14T23:10:58.475Z,13.50
2019-02-14T23:13:27.987Z,14.03
2019-02-14T23:15:57.516Z,18.57
2019-02-14T23:18:30.003Z,12.95
2019-02-14T23:21:00.282Z,14.60
2019-02-14T23:23:31.159Z,9.88
2019-02-14T23:26:00.702Z,12.58
2019-02-14T23:28:30.196Z,15.60
2019-02-14T23:31:00.200Z,12.43
2019-02-14T23:33:29.757Z,14.03
2019-02-14T23:35:59.425Z,12.10
2019-02-14T23:38:28.960Z,11.10
2019-02-14T23:40:59.141Z,11.18
2019-02-14T23:43:28.828Z,11.00
2019-02-14T23:45:58.473Z,15.00
2019-02-14T23:48:28.190Z,10.55
2019-02-14T23:50:57.783Z,17.37
2019-02-14T23:53:27.491Z,14.45
2019-02-14T23:55:57.039Z,11.50
2019-02-14T23:58:27.082Z,14.07
